createdAt,value
2023-04-16T00:00:09.445Z,38.00
2023-04-16T00:03:01.268Z,33.00
2023-04-16T00:05:29.393Z,30.00
2023-04-16T00:07:57.472Z,31.00
2023-04-16T00:10:25.466Z,33.00
2023-04-16T00:12:53.354Z,33.67
2023-04-16T00:15:21.348Z,34.00
2023-04-16T00:17:49.269Z,34.50
2023-04-16T00:20:17.309Z,33.00
2023-04-16T00:22:45.427Z,33.50
2023-04-16T00:25:14.083Z,34.00
2023-04-16T00:27:41.945Z,32.50
2023-04-16T00:30:10.130Z,31.00
2023-04-16T00:32:38.065Z,34.00
2023-04-16T00:35:06.623Z,36.00
2023-04-16T00:37:34.554Z,36.00
2023-04-16T00:40:02.572Z,34.00
2023-04-16T00:42:30.891Z,33.50
2023-04-16T00:44:58.799Z,32.00
2023-04-16T00:47:28.170Z,29.00
2023-04-16T00:49:56.197Z,15.00
2023-04-16T00:52:24.746Z,30.00
2023-04-16T00:54:54.002Z,29.00
2023-04-16T00:57:24.021Z,29.00
2023-04-16T00:59:52.095Z,26.00
2023-04-16T01:02:20.170Z,26.00
2023-04-16T01:04:52.131Z,20.00
2023-04-16T01:07:21.601Z,24.00
2023-04-16T01:09:49.808Z,26.50
2023-04-16T01:12:17.796Z,31.00
2023-04-16T01:14:45.838Z,24.00
2023-04-16T01:17:14.443Z,26.00
2023-04-16T01:22:10.835Z,17.00
2023-04-16T01:24:39.681Z,18.50
2023-04-16T01:27:11.469Z,20.00
2023-04-16T01:29:39.724Z,20.00
2023-04-16T01:34:38.142Z,20.00
2023-04-16T01:37:06.133Z,24.00
2023-04-16T01:39:34.074Z,23.00
2023-04-16T01:42:02.631Z,15.50
2023-04-16T01:44:31.165Z,17.00
2023-04-16T01:46:59.268Z,15.00
2023-04-16T01:49:28.159Z,13.00
2023-04-16T01:51:56.197Z,13.00
2023-04-16T01:54:23.980Z,14.50
2023-04-16T01:56:51.860Z,17.00
2023-04-16T01:59:20.573Z,16.50
2023-04-16T02:01:48.552Z,19.00
2023-04-16T02:04:16.808Z,18.00
2023-04-16T02:06:44.925Z,23.00
2023-04-16T02:09:22.891Z,28.00
2023-04-16T02:11:50.866Z,25.00
2023-04-16T02:14:18.851Z,30.00
2023-04-16T02:16:46.940Z,26.00
2023-04-16T02:19:27.531Z,27.00
2023-04-16T02:21:55.622Z,33.00
2023-04-16T02:24:23.437Z,27.00
2023-04-16T02:26:51.844Z,31.00
2023-04-16T02:29:20.107Z,25.50
2023-04-16T02:31:53.579Z,21.00
2023-04-16T02:34:21.677Z,21.00
2023-04-16T02:36:50.088Z,28.00
2023-04-16T02:39:18.134Z,24.00
2023-04-16T02:41:46.475Z,24.50
2023-04-16T02:44:14.586Z,27.00
2023-04-16T02:46:42.446Z,21.00
2023-04-16T02:49:10.931Z,22.00
2023-04-16T02:51:38.986Z,22.00
2023-04-16T02:54:06.861Z,22.00
2023-04-16T02:56:34.723Z,24.00
2023-04-16T02:59:02.596Z,21.00
2023-04-16T03:01:30.713Z,24.00
2023-04-16T03:03:58.641Z,22.00
2023-04-16T03:06:27.185Z,27.00
2023-04-16T03:08:55.301Z,25.50
2023-04-16T03:11:23.738Z,25.00
2023-04-16T03:13:51.639Z,31.50
2023-04-16T03:16:19.732Z,32.00
2023-04-16T03:18:47.728Z,29.00
2023-04-16T03:21:18.489Z,33.00
2023-04-16T03:23:46.368Z,35.50
2023-04-16T03:26:14.173Z,34.00
2023-04-16T03:28:42.397Z,31.00
2023-04-16T03:31:10.993Z,29.00
2023-04-16T03:33:39.139Z,28.00
2023-04-16T03:36:07.383Z,23.00
2023-04-16T03:38:35.256Z,26.33
2023-04-16T03:41:03.181Z,24.00
2023-04-16T03:43:32.334Z,25.33
2023-04-16T03:46:00.348Z,27.00
2023-04-16T03:48:28.333Z,24.00
2023-04-16T03:50:56.332Z,21.00
2023-04-16T03:53:24.370Z,24.00
2023-04-16T03:55:52.827Z,23.00
2023-04-16T03:58:21.494Z,25.00
2023-04-16T04:00:49.396Z,27.00
2023-04-16T04:03:18.127Z,18.00
2023-04-16T04:05:47.454Z,16.50
2023-04-16T04:08:17.513Z,18.00
2023-04-16T04:10:46.081Z,22.00
2023-04-16T04:13:14.827Z,22.00
2023-04-16T04:15:44.798Z,20.00
2023-04-16T04:18:12.695Z,23.50
2023-04-16T04:20:41.380Z,22.50
2023-04-16T04:23:09.574Z,20.50
2023-04-16T04:28:05.347Z,27.00
2023-04-16T04:33:01.219Z,21.50
2023-04-16T04:35:29.221Z,21.50
2023-04-16T04:37:58.595Z,23.00
2023-04-16T04:40:27.692Z,24.00
2023-04-16T04:42:55.509Z,24.00
2023-04-16T04:45:28.456Z,22.50
2023-04-16T04:47:57.518Z,27.00
2023-04-16T04:50:25.582Z,36.00
2023-04-16T04:52:53.508Z,34.00
2023-04-16T04:55:22.681Z,27.00
2023-04-16T04:57:51.684Z,26.50
2023-04-16T05:00:20.967Z,28.00
2023-04-16T05:02:53.961Z,32.50
2023-04-16T05:05:22.211Z,23.50
2023-04-16T05:07:50.164Z,24.50
2023-04-16T05:10:18.090Z,29.00
2023-04-16T05:12:49.165Z,23.50
2023-04-16T05:15:17.314Z,22.50
2023-04-16T05:17:45.609Z,18.00
2023-04-16T05:20:13.725Z,25.00
2023-04-16T05:22:41.799Z,23.00
2023-04-16T05:25:10.426Z,27.50
2023-04-16T05:27:38.638Z,21.00
2023-04-16T05:30:07.213Z,26.00
2023-04-16T05:32:35.266Z,27.00
2023-04-16T05:37:31.268Z,28.00
2023-04-16T05:39:59.138Z,24.50
2023-04-16T05:44:55.219Z,23.00
2023-04-16T05:47:23.168Z,23.00
2023-04-16T05:49:51.138Z,20.00
2023-04-16T05:52:19.131Z,22.00
2023-04-16T05:54:47.074Z,24.50
2023-04-16T05:57:15.073Z,23.00
2023-04-16T05:59:43.026Z,24.00
2023-04-16T06:02:11.257Z,21.00
2023-04-16T06:04:39.272Z,22.00
2023-04-16T06:07:07.175Z,20.00
2023-04-16T06:09:35.061Z,19.00
2023-04-16T06:12:03.165Z,25.00
2023-04-16T06:14:31.180Z,22.00
2023-04-16T06:16:59.142Z,23.00
2023-04-16T06:19:26.995Z,29.33
2023-04-16T06:21:54.864Z,24.00
2023-04-16T06:24:23.260Z,32.00
2023-04-16T06:26:51.104Z,30.00
2023-04-16T06:29:19.059Z,29.00
2023-04-16T06:34:16.404Z,23.50
2023-04-16T06:36:44.388Z,25.00
2023-04-16T06:39:12.453Z,26.00
2023-04-16T06:41:40.416Z,21.50
2023-04-16T06:44:08.288Z,17.00
2023-04-16T06:46:36.401Z,26.00
2023-04-16T06:49:04.306Z,21.00
2023-04-16T06:51:32.304Z,27.50
2023-04-16T06:54:00.585Z,30.00
2023-04-16T06:56:28.466Z,32.00
2023-04-16T06:58:57.852Z,31.00
2023-04-16T07:01:26.006Z,29.00
2023-04-16T07:03:54.878Z,32.00
2023-04-16T07:06:22.965Z,28.00
2023-04-16T07:08:50.922Z,28.00
2023-04-16T07:11:19.441Z,29.00
2023-04-16T07:13:47.422Z,28.00
2023-04-16T07:16:15.299Z,23.00
2023-04-16T07:18:43.238Z,26.00
2023-04-16T07:21:11.503Z,21.00
2023-04-16T07:23:39.524Z,22.00
2023-04-16T07:26:07.698Z,21.50
2023-04-16T07:28:35.886Z,19.00
2023-04-16T07:31:03.959Z,24.00
2023-04-16T07:33:31.920Z,19.00
2023-04-16T07:35:59.912Z,23.00
2023-04-16T07:38:27.844Z,27.00
2023-04-16T07:40:56.965Z,26.00
2023-04-16T07:43:25.090Z,32.00
2023-04-16T07:45:53.085Z,33.00
2023-04-16T07:48:22.235Z,40.00
2023-04-16T07:50:50.408Z,39.00
2023-04-16T07:53:18.416Z,36.00
2023-04-16T07:55:47.520Z,33.50
2023-04-16T07:58:15.399Z,31.67
2023-04-16T08:00:43.431Z,34.50
2023-04-16T08:03:11.617Z,39.50
2023-04-16T08:05:39.821Z,34.00
2023-04-16T08:08:08.148Z,34.00
2023-04-16T08:10:36.067Z,29.00
2023-04-16T08:13:04.299Z,25.00
2023-04-16T08:15:32.480Z,22.00
2023-04-16T08:18:00.641Z,21.00
2023-04-16T08:20:28.665Z,22.00
2023-04-16T08:22:56.813Z,27.00
2023-04-16T08:25:24.817Z,27.00
2023-04-16T08:27:52.757Z,26.00
2023-04-16T08:30:22.214Z,19.00
2023-04-16T08:32:50.606Z,19.00
2023-04-16T08:37:46.656Z,12.00
2023-04-16T08:40:14.585Z,15.00
2023-04-16T08:42:58.765Z,15.00
2023-04-16T08:45:27.802Z,16.50
2023-04-16T08:47:55.969Z,15.50
2023-04-16T08:50:25.579Z,18.00
2023-04-16T08:52:58.687Z,16.00
2023-04-16T08:55:36.046Z,15.00
2023-04-16T08:58:34.662Z,12.50
2023-04-16T09:01:06.280Z,10.50
2023-04-16T09:03:36.476Z,13.00
2023-04-16T09:06:05.621Z,14.00
2023-04-16T09:08:36.010Z,8.00
2023-04-16T09:11:04.771Z,9.00
2023-04-16T09:16:01.182Z,10.50
2023-04-16T09:18:30.839Z,19.00
2023-04-16T09:20:59.085Z,14.00
2023-04-16T09:23:27.050Z,12.00
2023-04-16T09:25:56.645Z,13.00
2023-04-16T09:28:44.170Z,13.00
2023-04-16T09:31:19.543Z,14.00
2023-04-16T09:34:07.902Z,15.00
2023-04-16T09:36:36.988Z,13.00
2023-04-16T09:39:05.009Z,13.00
2023-04-16T09:41:36.198Z,10.50
2023-04-16T09:44:05.712Z,9.00
2023-04-16T09:46:41.175Z,12.00
2023-04-16T09:49:21.475Z,9.50
2023-04-16T09:51:52.854Z,11.00
2023-04-16T09:54:21.095Z,10.00
2023-04-16T09:56:48.957Z,10.00
2023-04-16T09:59:31.214Z,10.00
2023-04-16T10:02:14.971Z,10.00
2023-04-16T10:04:51.484Z,8.00
2023-04-16T10:07:20.350Z,8.00
2023-04-16T10:09:49.149Z,9.00
2023-04-16T10:12:17.270Z,12.00
2023-04-16T10:14:45.284Z,10.50
2023-04-16T10:17:13.418Z,10.00
2023-04-16T10:19:42.232Z,10.00
2023-04-16T10:22:10.169Z,8.00
2023-04-16T10:24:38.861Z,8.00
2023-04-16T10:27:06.906Z,9.00
2023-04-16T10:29:35.276Z,10.00
2023-04-16T10:32:03.882Z,10.00
2023-04-16T10:34:32.344Z,8.67
2023-04-16T10:37:01.541Z,8.50
2023-04-16T10:39:29.899Z,9.00
2023-04-16T10:42:13.616Z,9.00
2023-04-16T10:44:46.171Z,10.00
2023-04-16T10:48:18.895Z,13.00
2023-04-16T10:50:58.101Z,11.00
2023-04-16T10:53:28.021Z,9.67
2023-04-16T10:56:05.139Z,11.00
2023-04-16T10:58:36.907Z,8.00
2023-04-16T11:01:13.681Z,10.00
2023-04-16T11:03:48.312Z,9.50
2023-04-16T11:06:23.966Z,9.00
2023-04-16T11:08:54.904Z,10.00
2023-04-16T11:11:23.874Z,10.00
2023-04-16T11:13:57.061Z,8.00
2023-04-16T11:16:26.354Z,10.00
2023-04-16T11:18:56.773Z,9.50
2023-04-16T11:21:33.669Z,14.00
2023-04-16T11:24:01.627Z,14.00
2023-04-16T11:26:30.972Z,11.50
2023-04-16T11:29:00.363Z,11.00
2023-04-16T11:31:28.792Z,10.00
2023-04-16T11:33:57.230Z,13.00
2023-04-16T11:36:27.423Z,12.00
2023-04-16T11:39:03.069Z,14.00
2023-04-16T11:41:31.176Z,12.50
2023-04-16T11:43:59.245Z,12.00
2023-04-16T11:46:40.762Z,11.00
2023-04-16T11:49:09.359Z,11.00
2023-04-16T11:51:42.379Z,11.50
2023-04-16T11:54:19.504Z,11.00
2023-04-16T11:56:49.150Z,8.50
2023-04-16T11:59:18.114Z,9.50
2023-04-16T12:01:55.920Z,10.00
2023-04-16T12:04:26.943Z,11.00
2023-04-16T12:07:12.262Z,10.50
2023-04-16T12:09:43.120Z,10.67
2023-04-16T12:12:36.768Z,10.50
2023-04-16T12:15:05.276Z,10.50
2023-04-16T12:17:35.333Z,1.00
2023-04-16T12:20:09.638Z,11.50
2023-04-16T12:22:44.510Z,8.50
2023-04-16T12:25:18.146Z,9.00
2023-04-16T12:27:53.360Z,10.00
2023-04-16T12:30:23.966Z,9.00
2023-04-16T12:33:16.448Z,7.00
2023-04-16T12:35:45.083Z,10.00
2023-04-16T12:38:15.173Z,7.00
2023-04-16T12:40:43.680Z,9.00
2023-04-16T12:43:11.901Z,9.00
2023-04-16T12:45:40.862Z,10.00
2023-04-16T12:48:09.038Z,9.00
2023-04-16T12:50:37.083Z,8.00
2023-04-16T12:53:05.094Z,8.33
2023-04-16T12:55:33.197Z,8.50
2023-04-16T12:58:01.774Z,7.00
2023-04-16T13:00:29.909Z,8.00
2023-04-16T13:02:58.138Z,9.00
2023-04-16T13:05:26.777Z,7.00
2023-04-16T13:10:23.681Z,8.00
2023-04-16T13:12:51.785Z,7.00
2023-04-16T13:15:19.918Z,8.00
2023-04-16T13:17:48.032Z,8.50
2023-04-16T13:20:16.146Z,8.50
2023-04-16T13:22:44.285Z,8.00
2023-04-16T13:25:12.221Z,7.00
2023-04-16T13:27:40.140Z,6.00
2023-04-16T13:30:08.577Z,5.67
2023-04-16T13:32:36.926Z,6.00
2023-04-16T13:35:05.354Z,6.00
2023-04-16T13:37:34.568Z,8.50
2023-04-16T13:40:02.579Z,5.50
2023-04-16T13:42:30.810Z,6.50
2023-04-16T13:44:59.044Z,6.00
2023-04-16T13:47:27.135Z,7.50
2023-04-16T13:49:55.328Z,6.00
2023-04-16T13:52:23.380Z,7.00
2023-04-16T13:54:51.693Z,6.00
2023-04-16T13:57:22.958Z,8.50
2023-04-16T13:59:50.945Z,9.00
2023-04-16T14:02:18.998Z,7.00
2023-04-16T14:04:47.058Z,7.00
2023-04-16T14:07:15.800Z,9.00
2023-04-16T14:09:44.131Z,9.00
2023-04-16T14:12:12.329Z,7.00
2023-04-16T14:14:40.330Z,10.00
2023-04-16T14:17:08.461Z,10.00
2023-04-16T14:19:36.637Z,11.00
2023-04-16T14:22:04.619Z,12.00
2023-04-16T14:24:32.756Z,10.00
2023-04-16T14:29:28.850Z,10.00
2023-04-16T14:31:57.247Z,9.50
2023-04-16T14:36:53.397Z,8.00
2023-04-16T14:39:21.568Z,9.00
2023-04-16T14:41:49.630Z,11.00
2023-04-16T14:44:25.706Z,10.00
2023-04-16T14:46:53.900Z,11.00
2023-04-16T14:49:22.039Z,10.00
2023-04-16T14:51:50.205Z,10.00
2023-04-16T14:54:35.827Z,10.50
2023-04-16T14:57:06.303Z,8.00
2023-04-16T14:59:34.225Z,11.00
2023-04-16T15:02:02.193Z,11.00
2023-04-16T15:04:58.058Z,10.00
2023-04-16T15:07:26.467Z,9.00
2023-04-16T15:09:54.469Z,10.00
2023-04-16T15:12:22.646Z,8.00
2023-04-16T15:14:51.830Z,11.00
2023-04-16T15:17:48.330Z,9.00
2023-04-16T15:20:16.416Z,12.50
2023-04-16T15:22:44.525Z,12.00
2023-04-16T15:25:12.780Z,10.00
2023-04-16T15:27:40.706Z,13.00
2023-04-16T15:30:09.126Z,10.00
2023-04-16T15:32:37.292Z,11.00
2023-04-16T15:35:06.222Z,9.50
2023-04-16T15:37:34.263Z,10.50
2023-04-16T15:40:02.397Z,12.00
2023-04-16T15:42:31.352Z,11.00
2023-04-16T15:44:59.697Z,12.00
2023-04-16T15:47:29.166Z,12.00
2023-04-16T15:49:57.207Z,10.00
2023-04-16T15:52:25.365Z,11.00
2023-04-16T15:54:54.859Z,10.50
2023-04-16T15:57:31.209Z,11.00
2023-04-16T16:00:06.994Z,10.00
2023-04-16T16:02:36.260Z,11.00
2023-04-16T16:05:04.754Z,9.50
2023-04-16T16:07:33.576Z,13.00
2023-04-16T16:11:02.918Z,10.00
2023-04-16T16:13:56.512Z,13.00
2023-04-16T16:16:35.156Z,10.00
2023-04-16T16:19:03.362Z,9.00
2023-04-16T16:21:32.622Z,10.00
2023-04-16T16:24:00.720Z,10.00
2023-04-16T16:26:29.122Z,12.50
2023-04-16T16:28:59.650Z,8.00
2023-04-16T16:31:27.586Z,8.00
2023-04-16T16:33:55.653Z,9.00
2023-04-16T16:36:23.779Z,12.00
2023-04-16T16:38:51.777Z,9.00
2023-04-16T16:41:19.818Z,11.00
2023-04-16T16:43:47.867Z,9.00
2023-04-16T16:46:15.880Z,8.00
2023-04-16T16:48:43.887Z,11.00
2023-04-16T16:51:11.966Z,10.50
2023-04-16T16:53:39.946Z,8.00
2023-04-16T16:56:08.010Z,8.00
2023-04-16T17:02:43.631Z,11.00
2023-04-16T17:06:17.640Z,7.00
2023-04-16T17:09:26.884Z,6.00
2023-04-16T17:11:54.967Z,8.00
2023-04-16T17:14:23.981Z,9.00
2023-04-16T17:16:52.109Z,9.00
2023-04-16T17:19:20.341Z,12.50
2023-04-16T17:21:48.349Z,15.50
2023-04-16T17:24:16.650Z,16.00
2023-04-16T17:26:44.689Z,19.00
2023-04-16T17:29:12.760Z,23.00
2023-04-16T17:31:40.909Z,28.50
2023-04-16T17:34:09.055Z,28.00
2023-04-16T17:36:37.223Z,29.50
2023-04-16T17:39:05.543Z,28.00
2023-04-16T17:41:33.816Z,25.50
2023-04-16T17:44:01.824Z,28.00
2023-04-16T17:46:29.973Z,25.00
2023-04-16T17:48:58.296Z,26.00
2023-04-16T17:51:27.479Z,21.00
2023-04-16T17:53:55.862Z,27.00
2023-04-16T17:56:24.210Z,34.00
2023-04-16T17:58:52.191Z,33.00
2023-04-16T18:01:20.928Z,36.00
2023-04-16T18:03:49.436Z,35.00
2023-04-16T18:06:17.902Z,31.00
2023-04-16T18:08:47.717Z,36.00
2023-04-16T18:11:16.053Z,32.00
2023-04-16T18:16:18.111Z,30.00
2023-04-16T18:18:46.530Z,28.00
2023-04-16T18:21:15.113Z,30.00
2023-04-16T18:23:45.680Z,33.00
2023-04-16T18:26:18.603Z,30.00
2023-04-16T18:28:49.214Z,28.00
2023-04-16T18:31:20.864Z,26.00
2023-04-16T18:33:57.624Z,25.00
2023-04-16T18:36:27.445Z,28.00
2023-04-16T18:39:02.181Z,25.00
2023-04-16T18:41:44.716Z,27.00
2023-04-16T18:44:13.125Z,29.00
2023-04-16T18:46:41.607Z,21.00
2023-04-16T18:49:12.415Z,27.00
2023-04-16T18:51:42.157Z,21.50
2023-04-16T18:54:10.660Z,19.00
2023-04-16T18:56:38.874Z,19.33
2023-04-16T18:59:07.273Z,17.00
2023-04-16T19:01:36.141Z,19.50
2023-04-16T19:04:05.053Z,18.50
2023-04-16T19:06:57.397Z,23.00
2023-04-16T19:09:27.281Z,19.00
2023-04-16T19:11:56.168Z,11.00
2023-04-16T19:14:24.346Z,21.50
2023-04-16T19:16:52.572Z,20.00
2023-04-16T19:19:20.905Z,23.00
2023-04-16T19:21:49.780Z,23.00
2023-04-16T19:24:18.973Z,29.00
2023-04-16T19:26:47.096Z,23.50
2023-04-16T19:29:15.337Z,22.00
2023-04-16T19:31:43.504Z,27.00
2023-04-16T19:34:11.620Z,33.00
2023-04-16T19:36:40.295Z,31.50
2023-04-16T19:39:14.287Z,33.00
2023-04-16T19:41:45.404Z,34.00
2023-04-16T19:44:15.922Z,35.00
2023-04-16T19:46:44.044Z,36.33
2023-04-16T19:49:12.520Z,35.00
2023-04-16T19:51:40.982Z,37.00
2023-04-16T19:54:09.334Z,39.00
2023-04-16T19:56:37.656Z,41.00
2023-04-16T19:59:07.256Z,39.00
2023-04-16T20:01:35.835Z,38.00
2023-04-16T20:04:04.281Z,46.00
2023-04-16T20:06:35.167Z,39.50
2023-04-16T20:09:03.648Z,41.00
2023-04-16T20:11:31.765Z,44.00
2023-04-16T20:14:01.075Z,48.00
2023-04-16T20:16:31.861Z,45.50
2023-04-16T20:19:04.074Z,43.50
2023-04-16T20:21:33.327Z,47.00
2023-04-16T20:24:01.894Z,44.50
2023-04-16T20:26:33.847Z,43.00
2023-04-16T20:29:03.769Z,42.00
2023-04-16T20:31:31.947Z,43.00
2023-04-16T20:34:00.121Z,38.00
2023-04-16T20:36:28.145Z,32.00
2023-04-16T20:38:56.237Z,34.50
2023-04-16T20:41:25.274Z,35.00
2023-04-16T20:44:53.597Z,36.00
2023-04-16T20:48:03.108Z,34.00
2023-04-16T20:50:31.306Z,34.50
2023-04-16T20:53:20.248Z,37.00
2023-04-16T20:56:10.165Z,33.00
2023-04-16T20:58:38.158Z,34.00
2023-04-16T21:01:06.358Z,28.33
2023-04-16T21:03:54.947Z,31.00
2023-04-16T21:06:23.148Z,28.00
2023-04-16T21:09:00.723Z,25.50
2023-04-16T21:11:33.390Z,22.00
2023-04-16T21:14:13.781Z,27.00
2023-04-16T21:16:41.904Z,26.00
2023-04-16T21:19:10.259Z,23.50
2023-04-16T21:21:39.038Z,21.50
2023-04-16T21:24:07.397Z,23.50
2023-04-16T21:26:35.327Z,22.00
2023-04-16T21:29:04.195Z,19.50
2023-04-16T21:31:32.341Z,22.50
2023-04-16T21:35:01.106Z,19.00
2023-04-16T21:37:45.864Z,15.00
2023-04-16T21:40:23.200Z,17.50
2023-04-16T21:42:51.759Z,19.00
2023-04-16T21:45:19.834Z,21.00
2023-04-16T21:47:47.903Z,18.50
2023-04-16T21:50:16.076Z,19.50
2023-04-16T21:52:46.325Z,19.00
2023-04-16T21:59:30.939Z,23.00
2023-04-16T22:03:43.624Z,20.00
2023-04-16T22:07:16.903Z,19.50
2023-04-16T22:09:45.056Z,21.00
2023-04-16T22:12:13.017Z,20.00
2023-04-16T22:17:27.812Z,19.50
2023-04-16T22:19:57.651Z,24.00
2023-04-16T22:22:25.643Z,20.00
2023-04-16T22:24:53.755Z,19.00
2023-04-16T22:27:42.280Z,21.00
2023-04-16T22:30:10.843Z,18.00
2023-04-16T22:32:38.972Z,19.00
2023-04-16T22:35:15.606Z,18.00
2023-04-16T22:38:44.510Z,14.00
2023-04-16T22:41:12.709Z,14.00
2023-04-16T22:43:40.925Z,14.00
2023-04-16T22:46:09.670Z,12.50
2023-04-16T22:48:38.778Z,13.00
2023-04-16T22:51:08.863Z,12.50
2023-04-16T22:53:36.981Z,10.50
2023-04-16T22:56:06.202Z,12.00
2023-04-16T22:59:16.236Z,11.00
2023-04-16T23:02:21.889Z,12.50
2023-04-16T23:04:49.956Z,15.00
2023-04-16T23:07:18.221Z,15.00
2023-04-16T23:09:46.288Z,14.00
2023-04-16T23:12:16.529Z,11.00
2023-04-16T23:14:46.061Z,13.00
2023-04-16T23:18:14.505Z,16.00
2023-04-16T23:20:42.822Z,11.00
2023-04-16T23:23:10.846Z,13.50
2023-04-16T23:25:41.310Z,6.50
2023-04-16T23:28:37.431Z,4.50
2023-04-16T23:31:47.479Z,12.00
2023-04-16T23:34:16.353Z,12.00
2023-04-16T23:37:04.513Z,11.00
2023-04-16T23:39:33.280Z,11.00
2023-04-16T23:42:01.921Z,14.00
2023-04-16T23:44:30.742Z,16.50
2023-04-16T23:46:59.247Z,13.00
2023-04-16T23:49:27.653Z,15.50
2023-04-16T23:51:55.625Z,16.50
2023-04-16T23:54:23.806Z,21.00
2023-04-16T23:56:51.845Z,16.00
2023-04-16T23:59:40.665Z,17.00
